Flight Track Log - Related Links

Times and Time Zones

All times are in EDT time to prevent confusion due to time zone crossing. See the VRT51 flight status page for this flight to view local times or setup timezone preferences in your user account.

Time Position Orientation Groundspeed Altitude Reporting Facility
EDT Latitude Longitude Course Direction KTS MPH feet Rate Location/Type
Fri 05:35:48 PM 40.8225 -74.1164 258° West 195 224 1,200  Level New York Center
Fri 05:36:48 PM 40.8100 -74.1956 258° West 230 265 3,200 1,850 Climbing New York Center
Fri 05:37:48 PM 40.8075 -74.2775 268° West 258 297 4,900 2,550 Climbing New York Center
Fri 05:38:48 PM 40.8042 -74.3897 268° West 276 318 8,300 2,550 Climbing New York Center
Fri 05:39:48 PM 40.7994 -74.4744 266° West 293 337 10,000 900 Climbing New York Center
Fri 05:40:48 PM 40.7911 -74.6000 265° West 293 337 10,100 550 Climbing New York Center
Fri 05:41:48 PM 40.7678 -74.6783 249° West 315 362 11,100 1,450 Climbing New York Center
Fri 05:42:48 PM 40.6664 -74.6614 173° South 330 380 13,000 2,200 Climbing New York Center
Fri 05:43:48 PM 40.6061 -74.7128 213° Southwest 325 374 15,500 2,000 Climbing New York Center
Fri 05:44:48 PM 40.5200 -74.7953 216° Southwest 335 386 17,000 750 Climbing New York Center
Fri 05:45:48 PM 40.5122 -74.8983 264° West 289 333 17,000  Level New York Center
Fri 05:46:48 PM 40.5481 -75.0044 294° West 294 338 17,000 -102 Level New York Center
Fri 05:48:00 PM 40.5084 -75.1329 248° West  Level Estimated
Fri 05:55:00 PM 40.2742 -75.8792 248° West  Level Estimated
Fri 05:56:00 PM 40.2403 -75.9854 247° West  Level Estimated
Fri 05:57:00 PM 40.2063 -76.0915 247° West  Level Estimated
Fri 05:58:00 PM 40.1723 -76.1974 247° West  Level Estimated
Fri 05:59:00 PM 40.1382 -76.3033 247° West  Level Estimated
Fri 06:00:00 PM 40.1039 -76.4090 247° West  Level Estimated
Fri 06:01:00 PM 40.0696 -76.5147 247° West  Level Estimated
Fri 06:02:00 PM 40.0352 -76.6202 247° West  Level Estimated
Fri 06:03:00 PM 40.0006 -76.7257 247° West  Level Estimated
Fri 06:04:00 PM 39.9660 -76.8310 247° West  Level Estimated
Fri 06:05:00 PM 39.9313 -76.9362 247° West  Level Estimated
Fri 06:06:00 PM 39.8965 -77.0414 247° West  Level Estimated
Fri 06:07:00 PM 39.8616 -77.1464 247° West  Level Estimated
Fri 06:08:00 PM 39.8266 -77.2513 247° West  Level Estimated
Fri 06:09:00 PM 39.7915 -77.3561 246° West  Level Estimated
Fri 06:10:00 PM 39.7563 -77.4608 246° West  Level Estimated
Fri 06:11:00 PM 39.7210 -77.5654 246° West  Level Estimated
Fri 06:12:00 PM 39.6856 -77.6699 246° West  Level Estimated
Fri 06:13:00 PM 39.6502 -77.7742 246° West  Level Estimated
Fri 06:14:00 PM 39.6146 -77.8785 246° West  Level Estimated
Fri 06:15:00 PM 39.5789 -77.9826 246° West  Level Estimated
Fri 06:16:00 PM 39.5432 -78.0867 246° West  Level Estimated
Fri 06:17:00 PM 39.5073 -78.1906 246° West  Level Estimated
Fri 06:18:00 PM 39.4714 -78.2945 246° West  Level Estimated
Fri 06:19:00 PM 39.4354 -78.3982 246° West  Level Estimated
Fri 06:20:00 PM 39.3993 -78.5018 246° West  Level Estimated
Fri 06:21:00 PM 39.3630 -78.6053 246° West  Level Estimated
Fri 06:22:00 PM 39.3267 -78.7087 246° West  Level Estimated
Fri 06:23:00 PM 39.2904 -78.8120 246° West  Level Estimated
Fri 06:24:00 PM 39.2539 -78.9152 245° Southwest  Level Estimated
Fri 06:25:00 PM 39.2173 -79.0183 245° Southwest  Level Estimated
Fri 06:26:00 PM 39.1806 -79.1213 245° Southwest  Level Estimated
Fri 06:27:00 PM 39.1438 -79.2242 245° Southwest  Level Estimated
Fri 06:28:00 PM 39.1070 -79.3269 245° Southwest  Level Estimated
Fri 06:29:00 PM 39.0701 -79.4296 245° Southwest  Level Estimated
Fri 06:30:00 PM 39.0330 -79.5321 245° Southwest  Level Estimated
Fri 06:31:00 PM 38.9959 -79.6346 245° Southwest  Level Estimated
Fri 06:32:00 PM 38.9587 -79.7369 245° Southwest  Level Estimated
Fri 06:33:00 PM 38.9214 -79.8391 245° Southwest  Level Estimated
Fri 06:34:00 PM 38.8840 -79.9412 245° Southwest  Level Estimated
Fri 06:35:00 PM 38.8465 -80.0432 245° Southwest  Level Estimated
Fri 06:36:00 PM 38.8090 -80.1451 245° Southwest  Level Estimated
Fri 06:37:00 PM 38.7713 -80.2469 245° Southwest  Level Estimated
Fri 06:38:00 PM 38.7336 -80.3486 245° Southwest  Level Estimated
Fri 06:39:00 PM 38.6958 -80.4502 245° Southwest  Level Estimated
Fri 06:40:00 PM 38.6578 -80.5517 244° Southwest  Level Estimated
Fri 06:41:00 PM 38.6198 -80.6530 244° Southwest  Level Estimated
Fri 06:42:00 PM 38.5817 -80.7543 244° Southwest  Level Estimated
Fri 06:43:00 PM 38.5436 -80.8554 244° Southwest  Level Estimated
Fri 06:44:00 PM 38.5053 -80.9565 244° Southwest  Level Estimated
Fri 06:45:00 PM 38.4670 -81.0574 244° Southwest  Level Estimated
Fri 06:46:00 PM 38.4285 -81.1582 244° Southwest  Level Estimated
Fri 06:47:00 PM 38.3900 -81.2590 244° Southwest  Level Estimated
Fri 06:48:00 PM 38.3514 -81.3596 244° Southwest  Level Estimated
Fri 06:49:00 PM 38.3127 -81.4601 244° Southwest  Level Estimated
Fri 06:50:00 PM 38.2739 -81.5605 244° Southwest  Level Estimated
Fri 06:51:00 PM 38.2350 -81.6608 244° Southwest  Level Estimated
Fri 06:52:00 PM 38.1961 -81.7609 244° Southwest  Level Estimated
Fri 06:53:00 PM 38.1571 -81.8610 244° Southwest  Level Estimated
Fri 06:54:00 PM 38.1179 -81.9610 244° Southwest  Level Estimated
Fri 06:55:00 PM 38.0787 -82.0608 244° Southwest  Level Estimated
Fri 06:56:00 PM 38.0394 -82.1606 243° Southwest  Level Estimated
Fri 06:57:00 PM 38.0000 -82.2602 243° Southwest  Level Estimated
Fri 06:58:00 PM 37.9606 -82.3598 243° Southwest  Level Estimated
Fri 08:16:40 PM 33.5833 -86.7219 56° Northeast 194 223 1,600  Level Atlanta Center
Fri 08:17:40 PM 33.6203 -86.6606 54° Northeast 218 251 5,700 3,550 Climbing Atlanta Center
Fri 08:18:40 PM 33.6997 -86.6506 North 228 262 8,700 3,132 Climbing Atlanta Center
Fri 08:20:42 PM 33.8972 -86.6208 North 369 425 15,200 3,165 Climbing Memphis Center
Fri 08:21:42 PM 34.0156 -86.6008 North 398 458 18,300 1,900 Climbing Memphis Center
Fri 08:22:42 PM 34.1361 -86.5831 North 424 488 19,000 350 Climbing Memphis Center
Fri 08:23:42 PM 34.2586 -86.5625 North 435 501 19,000  Level Memphis Center
Fri 08:24:42 PM 34.3811 -86.5419 North 440 506 19,000  Level Memphis Center
Fri 08:25:42 PM 34.5056 -86.5214 North 440 506 19,000  Level Memphis Center
Fri 08:26:42 PM 34.6303 -86.5006 North 440 506 19,000  Level Memphis Center
Fri 08:27:42 PM 34.7528 -86.4797 North 445 512 19,000  Level Memphis Center
Fri 08:28:42 PM 34.8719 -86.4211 22° Northeast 445 512 19,000  Level Memphis Center
Fri 08:29:42 PM 34.9753 -86.3303 36° Northeast 443 510 19,000  Level Memphis Center
Fri 08:30:42 PM 35.0808 -86.2414 35° Northeast 449 517 19,000 -50 Level Memphis Center
Fri 08:31:42 PM 35.1933 -86.1747 26° Northeast 449 517 18,900 -1,150 Descending Memphis Center
Fri 08:32:42 PM 35.3133 -86.1458 11° North 436 502 16,700 -2,150 Descending Memphis Center
Fri 08:33:42 PM 35.4292 -86.1197 10° North 431 496 14,600 -2,100 Descending Memphis Center
Fri 08:34:42 PM 35.5389 -86.0936 11° North 419 482 12,500 -2,250 Descending Memphis Center
Fri 08:35:42 PM 35.6522 -86.1108 353° North 378 435 10,100 -1,350 Descending Memphis Center
Fri 08:36:42 PM 35.7353 -86.1681 331° Northwest 373 429 9,800 -700 Descending Memphis Center
Fri 08:37:42 PM 35.7800 -86.2578 302° West 306 352 8,700 -1,000 Descending Memphis Center
Fri 08:38:42 PM 35.8181 -86.3328 302° West 301 346 7,800 -1,050 Descending Memphis Center
Fri 08:39:42 PM 35.8606 -86.4203 301° West 295 339 6,600 -1,350 Descending Memphis Center
Fri 08:40:42 PM 35.9028 -86.5053 302° West 290 334 5,100 -1,550 Descending Memphis Center
Fri 08:41:42 PM 35.9450 -86.5881 302° West 290 334 3,500 -1,400 Descending Memphis Center
Fri 08:42:42 PM 35.9867 -86.6578 306° West 270 311 2,300 -850 Descending Memphis Center
Fri 08:43:42 PM 36.0275 -86.6972 322° Northwest 211 243 1,800 -450 Descending Memphis Center
Fri 08:44:42 PM 36.0631 -86.7058 349° North 151 174 1,400 -550 Descending Memphis Center
Fri 08:45:42 PM 36.0981 -86.6914 18° North 121 139 700 -350 Descending Memphis Center
Fri 08:46:42 PM 36.1253 -86.6978 349° North 121 139 700  Level Memphis Center
Fri 08:50:00 PM 36.1245 -86.6782 90° East  Level Estimated
Fri 08:57:00 PM 36.1245 -86.6782 90° East  Level Estimated
Fri 08:58:00 PM 36.1245 -86.6782 90° East  Level Estimated
Fri 08:59:00 PM 36.1245 -86.6782 90° East  Level Estimated
Fri 09:00:00 PM 36.1245 -86.6782 90° East  Level Estimated
Fri 09:01:00 PM 36.1245 -86.6782 90° East  Level Estimated
Fri 09:02:00 PM 36.1245 -86.6782 90° East  Level Estimated
Fri 09:03:00 PM 36.1245 -86.6782 90° East  Level Estimated

Login

Don't have an account? Register now (free) for customized features, flight alerts, and more!